createdAt,value
2023-05-21T00:00:21.785Z,76.74
2023-05-21T00:02:48.423Z,76.72
2023-05-21T00:05:17.114Z,77.47
2023-05-21T00:07:44.489Z,76.84
2023-05-21T00:10:11.264Z,76.98
2023-05-21T00:12:37.850Z,76.86
2023-05-21T00:15:04.848Z,76.80
2023-05-21T00:17:31.465Z,76.67
2023-05-21T00:19:58.017Z,76.64
2023-05-21T00:22:24.554Z,76.46
2023-05-21T00:24:51.210Z,77.04
2023-05-21T00:27:17.992Z,76.90
2023-05-21T00:29:44.639Z,77.12
2023-05-21T00:32:11.387Z,78.03
2023-05-21T00:34:38.331Z,79.02
2023-05-21T00:37:05.174Z,79.24
2023-05-21T00:39:31.877Z,79.00
2023-05-21T00:41:58.409Z,78.68
2023-05-21T00:44:25.514Z,78.33
2023-05-21T00:46:53.755Z,79.01
2023-05-21T00:49:22.527Z,78.89
2023-05-21T00:51:49.663Z,78.72
2023-05-21T00:54:16.307Z,78.58
2023-05-21T00:56:42.977Z,78.67
2023-05-21T00:59:09.682Z,78.60
2023-05-21T01:01:37.333Z,78.13
2023-05-21T01:04:04.314Z,78.40
2023-05-21T01:06:34.598Z,78.67
2023-05-21T01:09:05.220Z,79.22
2023-05-21T01:11:40.985Z,78.96
2023-05-21T01:14:09.459Z,79.19
2023-05-21T01:16:42.397Z,79.04
2023-05-21T01:19:14.168Z,79.76
2023-05-21T01:21:44.861Z,80.81
2023-05-21T01:24:11.556Z,81.14
2023-05-21T01:26:39.037Z,80.88
2023-05-21T01:29:15.026Z,80.78
2023-05-21T01:32:11.282Z,80.56
2023-05-21T01:34:48.135Z,80.71
2023-05-21T01:37:21.727Z,81.35
2023-05-21T01:39:52.457Z,83.49
2023-05-21T01:42:22.563Z,82.96
2023-05-21T01:44:55.035Z,82.38
2023-05-21T01:47:24.306Z,83.05
2023-05-21T01:49:52.364Z,82.32
2023-05-21T01:52:19.366Z,82.38
2023-05-21T01:54:45.896Z,81.85
2023-05-21T01:57:12.447Z,82.25
2023-05-21T01:59:39.023Z,83.07
2023-05-21T02:02:05.886Z,83.46
2023-05-21T02:04:32.498Z,83.43
2023-05-21T02:06:59.010Z,83.01
2023-05-21T02:09:25.593Z,82.21
2023-05-21T02:11:52.112Z,82.44
2023-05-21T02:14:18.677Z,83.36
2023-05-21T02:16:45.327Z,82.74
2023-05-21T02:19:12.087Z,84.01
2023-05-21T02:21:38.668Z,84.37
2023-05-21T02:24:05.516Z,84.16
2023-05-21T02:26:32.114Z,82.66
2023-05-21T02:28:58.748Z,82.33
2023-05-21T02:31:25.495Z,83.10
2023-05-21T02:33:52.069Z,82.43
2023-05-21T02:36:18.872Z,83.33
2023-05-21T02:38:45.607Z,82.92
2023-05-21T02:41:12.439Z,82.97
2023-05-21T02:43:39.289Z,83.55
2023-05-21T02:46:07.329Z,84.36
2023-05-21T02:48:33.873Z,82.79
2023-05-21T02:51:00.483Z,83.28
2023-05-21T02:53:27.095Z,84.37
2023-05-21T02:55:54.829Z,84.23
2023-05-21T02:58:23.523Z,83.73
2023-05-21T03:00:50.084Z,83.61
2023-05-21T03:03:16.756Z,82.88
2023-05-21T03:05:43.365Z,82.14
2023-05-21T03:08:09.944Z,81.63
2023-05-21T03:10:36.490Z,80.82
2023-05-21T03:13:06.028Z,80.99
2023-05-21T03:15:33.450Z,81.52
2023-05-21T03:18:00.475Z,81.54
2023-05-21T03:20:28.202Z,81.00
2023-05-21T03:22:55.841Z,81.35
2023-05-21T03:25:25.175Z,81.88
2023-05-21T03:27:52.409Z,82.49
2023-05-21T03:30:19.122Z,83.13
2023-05-21T03:32:47.748Z,82.30
2023-05-21T03:35:14.331Z,81.80
2023-05-21T03:37:41.076Z,82.67
2023-05-21T03:40:08.244Z,82.58
2023-05-21T03:42:34.783Z,81.86
2023-05-21T03:45:01.429Z,81.75
2023-05-21T03:47:28.067Z,82.35
2023-05-21T03:49:54.650Z,81.84
2023-05-21T03:52:21.204Z,81.56
2023-05-21T03:54:47.758Z,81.38
2023-05-21T03:57:14.314Z,81.51
2023-05-21T03:59:40.902Z,81.44
2023-05-21T04:02:07.447Z,80.83
2023-05-21T04:04:34.103Z,80.90
2023-05-21T04:07:00.943Z,81.10
2023-05-21T04:09:27.812Z,81.26
2023-05-21T04:11:54.522Z,81.08
2023-05-21T04:14:21.518Z,80.85
2023-05-21T04:16:49.158Z,80.54
2023-05-21T04:19:15.858Z,79.77
2023-05-21T04:21:45.153Z,79.36
2023-05-21T04:24:12.027Z,78.88
2023-05-21T04:26:42.017Z,79.08
2023-05-21T04:29:09.983Z,78.80
2023-05-21T04:31:36.854Z,79.07
2023-05-21T04:34:03.620Z,78.98
2023-05-21T04:36:30.231Z,78.68
2023-05-21T04:38:56.857Z,78.33
2023-05-21T04:41:23.429Z,78.20
2023-05-21T04:43:54.980Z,77.96
2023-05-21T04:46:25.365Z,77.77
2023-05-21T04:48:56.889Z,77.08
2023-05-21T04:51:25.003Z,77.40
2023-05-21T04:53:52.050Z,77.07
2023-05-21T04:56:18.861Z,76.81
2023-05-21T04:58:47.867Z,75.90
2023-05-21T05:01:16.040Z,75.89
2023-05-21T05:03:42.708Z,76.03
2023-05-21T05:06:09.306Z,75.49
2023-05-21T05:08:36.149Z,75.48
2023-05-21T05:11:03.097Z,75.02
2023-05-21T05:13:29.712Z,74.93
2023-05-21T05:15:57.473Z,74.88
2023-05-21T05:18:24.197Z,74.41
2023-05-21T05:20:50.736Z,74.42
2023-05-21T05:23:17.256Z,74.16
2023-05-21T05:25:43.860Z,73.89
2023-05-21T05:28:10.753Z,73.62
2023-05-21T05:30:37.441Z,73.43
2023-05-21T05:33:04.243Z,72.98
2023-05-21T05:35:31.002Z,72.47
2023-05-21T05:37:57.724Z,72.11
2023-05-21T05:40:24.324Z,71.77
2023-05-21T05:42:52.698Z,71.50
2023-05-21T05:45:19.946Z,70.93
2023-05-21T05:47:46.933Z,70.76
2023-05-21T05:50:13.658Z,70.27
2023-05-21T05:52:40.232Z,70.69
2023-05-21T05:55:09.044Z,70.90
2023-05-21T05:57:36.095Z,70.48
2023-05-21T06:00:03.989Z,70.63
2023-05-21T06:02:30.664Z,70.23
2023-05-21T06:04:58.376Z,69.52
2023-05-21T06:07:24.951Z,69.36
2023-05-21T06:09:51.520Z,69.18
2023-05-21T06:12:18.160Z,68.84
2023-05-21T06:14:46.055Z,68.32
2023-05-21T06:17:12.766Z,68.23
2023-05-21T06:19:39.723Z,67.60
2023-05-21T06:22:06.257Z,67.44
2023-05-21T06:24:32.880Z,67.28
2023-05-21T06:26:59.425Z,66.96
2023-05-21T06:29:25.976Z,66.41
2023-05-21T06:31:52.522Z,65.98
2023-05-21T06:34:19.070Z,65.69
2023-05-21T06:36:45.882Z,65.57
2023-05-21T06:39:12.452Z,65.49
2023-05-21T06:41:39.024Z,65.20
2023-05-21T06:44:06.018Z,64.97
2023-05-21T06:46:32.667Z,64.48
2023-05-21T06:49:01.021Z,64.30
2023-05-21T06:51:27.595Z,63.64
2023-05-21T06:53:54.177Z,63.15
2023-05-21T06:56:21.985Z,63.08
2023-05-21T06:58:48.541Z,62.67
2023-05-21T07:01:15.336Z,62.28
2023-05-21T07:03:41.981Z,61.94
2023-05-21T07:06:08.614Z,61.70
2023-05-21T07:08:35.226Z,61.48
2023-05-21T07:11:01.836Z,61.24
2023-05-21T07:13:29.248Z,60.77
2023-05-21T07:15:55.998Z,60.68
2023-05-21T07:18:22.564Z,60.19
2023-05-21T07:20:49.147Z,60.36
2023-05-21T07:23:15.793Z,59.97
2023-05-21T07:25:42.366Z,59.74
2023-05-21T07:28:09.014Z,59.74
2023-05-21T07:30:35.577Z,60.22
2023-05-21T07:33:02.231Z,59.91
2023-05-21T07:35:29.208Z,59.56
2023-05-21T07:37:55.917Z,59.23
2023-05-21T07:40:22.557Z,59.13
2023-05-21T07:42:49.139Z,59.12
2023-05-21T07:45:15.773Z,58.98
2023-05-21T07:47:43.273Z,58.76
2023-05-21T07:50:10.778Z,58.83
2023-05-21T07:52:37.454Z,58.55
2023-05-21T07:55:04.343Z,58.26
2023-05-21T07:57:30.902Z,57.53
2023-05-21T07:59:57.437Z,57.80
2023-05-21T08:02:24.230Z,57.61
2023-05-21T08:04:52.601Z,57.12
2023-05-21T08:07:20.245Z,57.04
2023-05-21T08:09:47.141Z,57.02
2023-05-21T08:12:15.923Z,56.47
2023-05-21T08:14:42.733Z,56.53
2023-05-21T08:17:10.479Z,56.67
2023-05-21T08:19:37.357Z,56.34
2023-05-21T08:22:04.175Z,56.07
2023-05-21T08:24:30.832Z,56.02
2023-05-21T08:26:57.385Z,55.72
2023-05-21T08:29:23.960Z,55.28
2023-05-21T08:31:50.624Z,55.29
2023-05-21T08:34:18.656Z,55.51
2023-05-21T08:36:46.261Z,55.26
2023-05-21T08:39:13.257Z,55.14
2023-05-21T08:41:40.399Z,54.89
2023-05-21T08:44:12.590Z,54.59
2023-05-21T08:46:40.766Z,54.36
2023-05-21T08:49:12.805Z,54.25
2023-05-21T08:51:39.606Z,53.67
2023-05-21T08:54:07.378Z,53.83
2023-05-21T08:56:35.184Z,54.29
2023-05-21T08:59:02.612Z,54.22
2023-05-21T09:01:29.366Z,54.54
2023-05-21T09:04:04.870Z,53.94
2023-05-21T09:06:40.834Z,53.79
2023-05-21T09:09:34.456Z,52.90
2023-05-21T09:12:00.990Z,52.08
2023-05-21T09:14:28.418Z,52.83
2023-05-21T09:16:55.003Z,52.89
2023-05-21T09:19:24.834Z,52.11
2023-05-21T09:21:52.794Z,52.53
2023-05-21T09:24:22.666Z,52.05
2023-05-21T09:26:49.291Z,52.04
2023-05-21T09:29:15.921Z,51.69
2023-05-21T09:31:45.896Z,52.04
2023-05-21T09:34:14.148Z,52.00
2023-05-21T09:36:40.836Z,51.53
2023-05-21T09:39:07.535Z,51.31
2023-05-21T09:41:36.009Z,51.27
2023-05-21T09:44:03.359Z,51.13
2023-05-21T09:46:42.509Z,51.61
2023-05-21T09:49:26.388Z,51.09
2023-05-21T09:51:57.216Z,51.20
2023-05-21T09:54:24.794Z,51.01
2023-05-21T09:56:54.732Z,50.96
2023-05-21T09:59:21.768Z,50.29
2023-05-21T10:01:51.955Z,50.23
2023-05-21T10:04:19.056Z,49.65
2023-05-21T10:06:47.887Z,49.01
2023-05-21T10:09:18.853Z,48.79
2023-05-21T10:11:48.147Z,48.30
2023-05-21T10:14:22.557Z,48.35
2023-05-21T10:16:50.381Z,48.16
2023-05-21T10:19:17.561Z,48.35
2023-05-21T10:21:45.797Z,47.37
2023-05-21T10:24:13.662Z,48.08
2023-05-21T10:26:41.678Z,48.20
2023-05-21T10:29:09.045Z,48.62
2023-05-21T10:31:38.719Z,47.92
2023-05-21T10:34:06.351Z,48.01
2023-05-21T10:36:34.310Z,47.62
2023-05-21T10:39:02.105Z,47.52
2023-05-21T10:41:35.836Z,46.78
2023-05-21T10:44:28.120Z,46.68
2023-05-21T10:47:07.166Z,47.06
2023-05-21T10:50:01.747Z,46.71
2023-05-21T10:52:54.843Z,47.32
2023-05-21T10:55:44.993Z,47.32
2023-05-21T10:58:35.814Z,47.09
2023-05-21T11:01:03.857Z,46.68
2023-05-21T11:03:34.106Z,46.72
2023-05-21T11:06:03.645Z,46.44
2023-05-21T11:08:31.828Z,46.22
2023-05-21T11:10:59.434Z,45.93
2023-05-21T11:13:27.464Z,45.55
2023-05-21T11:16:05.188Z,45.54
2023-05-21T11:18:40.492Z,45.97
2023-05-21T11:21:11.839Z,45.26
2023-05-21T11:23:50.526Z,45.25
2023-05-21T11:26:24.516Z,45.34
2023-05-21T11:29:06.947Z,44.78
2023-05-21T11:31:41.277Z,44.76
2023-05-21T11:34:35.029Z,44.76
2023-05-21T11:37:36.946Z,44.23
2023-05-21T11:40:25.708Z,44.89
2023-05-21T11:42:54.639Z,43.83
2023-05-21T11:45:23.503Z,43.91
2023-05-21T11:47:51.501Z,43.92
2023-05-21T11:50:18.644Z,43.33
2023-05-21T11:52:45.530Z,43.22
2023-05-21T11:55:12.622Z,43.78
2023-05-21T11:57:44.255Z,44.04
2023-05-21T12:00:16.105Z,43.82
2023-05-21T12:02:48.280Z,43.13
2023-05-21T12:05:15.185Z,43.50
2023-05-21T12:07:42.275Z,43.43
2023-05-21T12:10:09.381Z,43.11
2023-05-21T12:12:49.965Z,43.34
2023-05-21T12:15:21.426Z,43.26
2023-05-21T12:17:52.625Z,42.66
2023-05-21T12:20:19.984Z,42.71
2023-05-21T12:22:48.956Z,42.59
2023-05-21T12:25:19.824Z,42.78
2023-05-21T12:27:47.553Z,42.82
2023-05-21T12:30:14.800Z,42.83
2023-05-21T12:32:46.483Z,42.58
2023-05-21T12:35:23.213Z,41.31
2023-05-21T12:37:53.201Z,42.28
2023-05-21T12:40:20.053Z,42.68
2023-05-21T12:42:46.824Z,42.29
2023-05-21T12:45:13.897Z,42.14
2023-05-21T12:47:40.615Z,41.99
2023-05-21T12:50:13.968Z,41.83
2023-05-21T12:52:43.040Z,42.18
2023-05-21T12:55:11.793Z,41.72
2023-05-21T12:57:39.010Z,41.11
2023-05-21T13:00:07.316Z,40.93
2023-05-21T13:02:42.506Z,41.00
2023-05-21T13:05:17.303Z,41.11
2023-05-21T13:07:47.528Z,41.18
2023-05-21T13:10:16.859Z,40.63
2023-05-21T13:12:44.676Z,40.70
2023-05-21T13:15:12.093Z,40.91
2023-05-21T13:17:38.752Z,41.21
2023-05-21T13:20:12.544Z,40.49
2023-05-21T13:22:43.893Z,40.37
2023-05-21T13:25:11.747Z,40.11
2023-05-21T13:27:39.735Z,40.22
2023-05-21T13:30:07.386Z,39.85
2023-05-21T13:32:34.277Z,40.00
2023-05-21T13:35:01.006Z,40.05
2023-05-21T13:37:27.828Z,39.97
2023-05-21T13:39:54.614Z,39.45
2023-05-21T13:42:21.500Z,39.48
2023-05-21T13:44:48.477Z,39.97
2023-05-21T13:47:15.438Z,39.62
2023-05-21T13:49:42.808Z,39.58
2023-05-21T13:52:09.939Z,39.53
2023-05-21T13:54:36.825Z,38.69
2023-05-21T13:57:03.941Z,38.88
2023-05-21T13:59:32.699Z,38.79
2023-05-21T14:02:00.421Z,38.77
2023-05-21T14:04:27.303Z,39.37
2023-05-21T14:06:54.094Z,39.18
2023-05-21T14:09:21.430Z,39.21
2023-05-21T14:11:48.021Z,38.86
2023-05-21T14:14:18.945Z,38.59
2023-05-21T14:16:49.626Z,38.56
2023-05-21T14:19:16.522Z,38.57
2023-05-21T14:21:43.741Z,38.24
2023-05-21T14:24:10.335Z,37.90
2023-05-21T14:26:41.418Z,38.05
2023-05-21T14:29:08.235Z,37.83
2023-05-21T14:31:34.970Z,37.95
2023-05-21T14:34:02.973Z,38.05
2023-05-21T14:36:29.850Z,38.21
2023-05-21T14:38:56.594Z,38.27
2023-05-21T14:41:27.292Z,38.54
2023-05-21T14:43:54.555Z,37.77
2023-05-21T14:46:21.730Z,37.51
2023-05-21T14:48:48.335Z,36.96
2023-05-21T14:51:15.034Z,36.92
2023-05-21T14:53:41.604Z,37.35
2023-05-21T14:56:08.418Z,37.43
2023-05-21T14:58:35.005Z,37.21
2023-05-21T15:01:02.660Z,37.41
2023-05-21T15:03:29.555Z,37.36
2023-05-21T15:05:56.265Z,36.57
2023-05-21T15:08:22.941Z,36.51
2023-05-21T15:10:49.521Z,36.25
2023-05-21T15:13:16.102Z,36.62
2023-05-21T15:15:42.752Z,37.02
2023-05-21T15:18:09.401Z,37.23
2023-05-21T15:20:36.028Z,36.99
2023-05-21T15:25:32.211Z,36.62
2023-05-21T15:27:58.781Z,36.17
2023-05-21T15:30:27.264Z,36.29
2023-05-21T15:32:54.136Z,36.68
2023-05-21T15:35:20.850Z,36.58
2023-05-21T15:37:47.563Z,36.32
2023-05-21T15:40:14.192Z,36.62
2023-05-21T15:42:40.901Z,36.11
2023-05-21T15:45:07.956Z,36.35
2023-05-21T15:47:34.647Z,36.01
2023-05-21T15:50:01.277Z,35.50
2023-05-21T15:52:27.896Z,35.78
2023-05-21T15:54:54.800Z,35.75
2023-05-21T15:57:21.546Z,35.39
2023-05-21T15:59:48.275Z,35.73
2023-05-21T16:02:14.805Z,35.74
2023-05-21T16:04:41.458Z,35.72
2023-05-21T16:07:08.041Z,35.92
2023-05-21T16:09:35.434Z,36.89
2023-05-21T16:12:02.022Z,36.66
2023-05-21T16:14:29.390Z,36.63
2023-05-21T16:16:56.164Z,36.54
2023-05-21T16:19:22.913Z,36.81
2023-05-21T16:21:49.775Z,36.85
2023-05-21T16:24:16.356Z,36.94
2023-05-21T16:26:43.766Z,36.88
2023-05-21T16:29:10.303Z,37.32
2023-05-21T16:31:38.504Z,37.36
2023-05-21T16:34:05.120Z,36.89
2023-05-21T16:36:31.774Z,37.39
2023-05-21T16:38:58.324Z,38.02
2023-05-21T16:41:25.007Z,37.83
2023-05-21T16:43:54.260Z,38.44
2023-05-21T16:46:21.244Z,38.46
2023-05-21T16:48:47.871Z,38.74
2023-05-21T16:51:14.459Z,38.53
2023-05-21T16:53:41.218Z,38.86
2023-05-21T16:56:07.815Z,38.92
2023-05-21T16:58:36.102Z,38.03
2023-05-21T17:01:03.826Z,37.75
2023-05-21T17:03:32.515Z,37.16
2023-05-21T17:05:59.291Z,36.39
2023-05-21T17:08:26.081Z,36.12
2023-05-21T17:10:52.673Z,36.06
2023-05-21T17:13:22.630Z,35.66
2023-05-21T17:15:51.436Z,34.99
2023-05-21T17:18:18.265Z,34.91
2023-05-21T17:20:44.962Z,34.98
2023-05-21T17:23:12.303Z,35.75
2023-05-21T17:25:39.895Z,35.84
2023-05-21T17:28:06.811Z,36.68
2023-05-21T17:30:33.469Z,38.14
2023-05-21T17:33:02.232Z,39.89
2023-05-21T17:35:29.340Z,41.73
2023-05-21T17:37:56.033Z,42.49
2023-05-21T17:40:24.596Z,43.72
2023-05-21T17:42:52.389Z,44.24
2023-05-21T17:45:19.481Z,44.13
2023-05-21T17:47:46.512Z,44.84
2023-05-21T17:50:13.203Z,44.82
2023-05-21T17:52:40.005Z,45.75
2023-05-21T17:55:07.933Z,46.15
2023-05-21T17:57:35.993Z,46.63
2023-05-21T18:00:04.920Z,47.32
2023-05-21T18:02:31.605Z,47.57
2023-05-21T18:04:58.295Z,48.61
2023-05-21T18:07:24.853Z,49.24
2023-05-21T18:09:51.498Z,50.03
2023-05-21T18:12:18.044Z,50.58
2023-05-21T18:14:44.622Z,50.43
2023-05-21T18:17:11.244Z,50.67
2023-05-21T18:19:37.852Z,50.81
2023-05-21T18:22:05.159Z,51.06
2023-05-21T18:24:31.871Z,51.86
2023-05-21T18:26:58.569Z,52.08
2023-05-21T18:29:25.133Z,52.67
2023-05-21T18:31:51.856Z,53.38
2023-05-21T18:34:18.441Z,53.72
2023-05-21T18:36:45.087Z,54.35
2023-05-21T18:39:11.693Z,54.61
2023-05-21T18:41:38.812Z,54.99
2023-05-21T18:44:06.153Z,55.92
2023-05-21T18:46:33.145Z,55.57
2023-05-21T18:49:00.504Z,55.04
2023-05-21T18:51:27.291Z,55.01
2023-05-21T18:53:53.854Z,54.92
2023-05-21T18:56:21.833Z,54.95
2023-05-21T18:58:48.609Z,54.63
2023-05-21T19:01:16.108Z,54.24
2023-05-21T19:03:42.754Z,54.60
2023-05-21T19:06:09.585Z,54.64
2023-05-21T19:08:36.208Z,54.97
2023-05-21T19:11:03.061Z,54.64
2023-05-21T19:13:29.725Z,54.84
2023-05-21T19:15:58.329Z,54.61
2023-05-21T19:18:30.436Z,54.50
2023-05-21T19:20:57.398Z,54.80
2023-05-21T19:23:24.894Z,54.53
2023-05-21T19:25:51.595Z,54.55
2023-05-21T19:28:18.925Z,54.49
2023-05-21T19:30:46.350Z,54.70
2023-05-21T19:33:13.605Z,54.56
2023-05-21T19:35:42.010Z,55.09
2023-05-21T19:38:11.799Z,54.96
2023-05-21T19:40:38.673Z,54.93
2023-05-21T19:43:05.520Z,54.97
2023-05-21T19:45:32.164Z,55.17
2023-05-21T19:47:59.811Z,54.84
2023-05-21T19:50:28.564Z,55.49
2023-05-21T19:52:57.163Z,55.84
2023-05-21T19:55:24.782Z,56.38
2023-05-21T19:57:51.726Z,56.65
2023-05-21T20:00:19.234Z,56.95
2023-05-21T20:02:46.364Z,57.71
2023-05-21T20:05:13.217Z,57.88
2023-05-21T20:07:40.059Z,59.41
2023-05-21T20:10:07.521Z,59.68
2023-05-21T20:12:34.212Z,60.49
2023-05-21T20:15:01.008Z,60.28
2023-05-21T20:17:28.710Z,60.60
2023-05-21T20:19:57.234Z,60.61
2023-05-21T20:22:23.922Z,60.98
2023-05-21T20:24:50.680Z,61.81
2023-05-21T20:27:19.407Z,61.33
2023-05-21T20:29:46.280Z,61.19
2023-05-21T20:32:13.307Z,60.93
2023-05-21T20:34:54.420Z,61.55
2023-05-21T20:37:27.952Z,61.58
2023-05-21T20:39:57.784Z,62.02
2023-05-21T20:42:28.472Z,62.27
2023-05-21T20:44:55.592Z,62.57
2023-05-21T20:47:23.374Z,62.45
2023-05-21T20:49:53.747Z,62.74
2023-05-21T20:52:20.667Z,63.24
2023-05-21T20:54:49.014Z,63.11
2023-05-21T20:57:16.093Z,63.18
2023-05-21T20:59:43.095Z,63.09
2023-05-21T21:02:12.636Z,63.11
2023-05-21T21:04:39.790Z,62.87
2023-05-21T21:07:08.050Z,63.02
2023-05-21T21:09:34.607Z,62.49
2023-05-21T21:12:06.256Z,62.52
2023-05-21T21:14:38.082Z,62.98
2023-05-21T21:17:04.847Z,63.18
2023-05-21T21:19:31.521Z,62.83
2023-05-21T21:21:58.436Z,62.34
2023-05-21T21:24:25.067Z,62.62
2023-05-21T21:26:51.631Z,62.72
2023-05-21T21:29:18.181Z,62.47
2023-05-21T21:31:47.456Z,62.55
2023-05-21T21:34:14.323Z,62.19
2023-05-21T21:36:40.910Z,62.21
2023-05-21T21:39:07.575Z,62.40
2023-05-21T21:41:34.364Z,62.35
2023-05-21T21:44:01.108Z,61.88
2023-05-21T21:46:27.688Z,61.84
2023-05-21T21:48:54.289Z,61.24
2023-05-21T21:51:23.215Z,61.62
2023-05-21T21:53:50.171Z,61.47
2023-05-21T21:56:16.747Z,61.89
2023-05-21T21:58:43.448Z,61.82
2023-05-21T22:01:10.180Z,62.61
2023-05-21T22:03:36.926Z,62.53
2023-05-21T22:06:03.612Z,63.09
2023-05-21T22:08:30.267Z,63.61
2023-05-21T22:10:56.948Z,64.04
2023-05-21T22:13:24.551Z,64.99
2023-05-21T22:15:51.606Z,64.80
2023-05-21T22:18:28.209Z,65.50
2023-05-21T22:21:03.832Z,65.87
2023-05-21T22:23:30.525Z,66.12
2023-05-21T22:25:57.076Z,66.63
2023-05-21T22:28:23.625Z,66.29
2023-05-21T22:30:50.196Z,67.63
2023-05-21T22:33:16.961Z,68.13
2023-05-21T22:35:43.752Z,68.66
2023-05-21T22:38:10.365Z,68.57
2023-05-21T22:40:38.118Z,69.03
2023-05-21T22:43:05.018Z,69.09
2023-05-21T22:45:31.627Z,70.13
2023-05-21T22:48:01.668Z,70.91
2023-05-21T22:50:29.488Z,71.26
2023-05-21T22:52:56.158Z,72.16
2023-05-21T22:55:22.715Z,72.67
2023-05-21T22:57:49.310Z,72.18
2023-05-21T23:00:19.078Z,71.84
2023-05-21T23:02:47.172Z,71.92
2023-05-21T23:05:13.929Z,71.44
2023-05-21T23:07:41.372Z,72.49
2023-05-21T23:10:09.027Z,73.39
2023-05-21T23:12:36.563Z,73.70
2023-05-21T23:15:04.907Z,72.82
2023-05-21T23:17:31.745Z,72.67
2023-05-21T23:19:59.505Z,71.85
2023-05-21T23:22:26.283Z,71.79
2023-05-21T23:24:54.224Z,71.85
2023-05-21T23:27:20.961Z,72.09
2023-05-21T23:29:47.518Z,72.45
2023-05-21T23:32:14.144Z,72.28
2023-05-21T23:34:42.005Z,73.00
2023-05-21T23:37:08.685Z,72.59
2023-05-21T23:39:36.650Z,73.38
2023-05-21T23:42:03.534Z,73.24
2023-05-21T23:44:30.113Z,73.70
2023-05-21T23:46:56.748Z,73.03
2023-05-21T23:49:23.303Z,72.49
2023-05-21T23:51:50.799Z,72.31
2023-05-21T23:54:17.565Z,72.29
2023-05-21T23:56:45.394Z,72.74
2023-05-21T23:59:12.020Z,72.63
